Time;durP1;ratioP1;P1;durP2;ratioP2;P2;SDS_P1;SDS_P2;PMS_P1;PMS_P2;Temp;Humidity;BMP_temperature;BMP_pressure;BME280_temperature;BME280_humidity;BME280_pressure;Samples;Min_cycle;Max_cycle;Signal;HPM_P1;HPM_P2
2022/04/01 00:04:32;;;;;;;8.70;3.20;;;;;12.02;95391.40;;;;110505;1255;42039;-69
2022/04/01 00:58:54;;;;;;;8.90;3.00;;;;;11.90;95391.40;;;;110704;1253;41979;-69
2022/04/01 01:02:14;;;;;;;9.50;3.10;;;;;11.90;95390.40;;;;110203;1259;41392;-69
2022/04/01 01:04:44;;;;;;;8.40;2.90;;;;;11.90;95394.40;;;;110263;1259;41724;-69
2022/04/01 01:07:14;;;;;;;9.40;3.00;;;;;11.90;95392.20;;;;110168;1259;41149;-69
2022/04/01 01:09:48;;;;;;;8.40;3.00;;;;;11.90;95399.00;;;;110365;1259;40938;-69
2022/04/01 01:12:19;;;;;;;10.00;2.60;;;;;11.90;95396.40;;;;110297;1259;42640;-69
2022/04/01 01:14:49;;;;;;;8.40;3.10;;;;;12.00;95392.60;;;;110419;1257;41521;-69
2022/04/01 01:17:20;;;;;;;12.30;3.30;;;;;12.00;95391.20;;;;110387;1258;41177;-67
2022/04/01 01:19:50;;;;;;;10.50;3.00;;;;;12.00;95388.20;;;;110437;1259;40877;-68
2022/04/01 01:22:20;;;;;;;8.40;3.00;;;;;12.00;95393.20;;;;110358;1257;41614;-69
2022/04/01 01:24:50;;;;;;;9.70;3.40;;;;;12.00;95396.20;;;;110252;1259;42025;-69
2022/04/01 01:27:21;;;;;;;9.50;3.30;;;;;12.00;95394.40;;;;110689;1254;41638;-70
2022/04/01 01:29:54;;;;;;;8.40;2.80;;;;;12.00;95392.60;;;;110762;1254;40932;-70
2022/04/01 01:32:28;;;;;;;11.70;3.80;;;;;12.00;95388.00;;;;110757;1253;41310;-69
2022/04/01 01:34:59;;;;;;;10.00;3.40;;;;;12.08;95381.80;;;;110699;1254;42183;-70
2022/04/01 01:37:29;;;;;;;8.30;3.30;;;;;12.10;95385.20;;;;110700;1254;41215;-69
2022/04/01 01:39:59;;;;;;;10.40;4.00;;;;;12.10;95381.00;;;;110698;1254;41411;-69
2022/04/01 01:42:30;;;;;;;10.30;3.00;;;;;12.10;95389.00;;;;110516;1255;41143;-69
2022/04/01 01:45:01;;;;;;;10.50;3.00;;;;;12.10;95384.20;;;;110553;1254;42626;-69
2022/04/01 01:47:31;;;;;;;9.70;3.70;;;;;12.10;95384.20;;;;110736;1255;41605;-69
2022/04/01 01:55:40;;;;;;;8.50;3.50;;;;;12.20;95365.60;;;;110446;1256;41767;-70
2022/04/01 01:58:10;;;;;;;8.70;3.00;;;;;12.30;95374.40;;;;110536;1255;41954;-69
2022/04/01 02:00:42;;;;;;;10.90;4.20;;;;;12.30;95381.20;;;;110618;1252;41189;-68
2022/04/01 02:03:12;;;;;;;11.60;4.60;;;;;12.30;95381.00;;;;110641;1253;41180;-69
2022/04/01 02:05:43;;;;;;;10.00;3.70;;;;;12.30;95376.20;;;;110671;1254;41258;-68
2022/04/01 02:08:13;;;;;;;10.00;3.60;;;;;12.30;95376.20;;;;110663;1253;41159;-69
2022/04/01 02:10:44;;;;;;;9.00;3.50;;;;;12.30;95375.20;;;;110705;1252;41405;-69
2022/04/01 02:13:14;;;;;;;10.30;3.70;;;;;12.30;95379.00;;;;110561;1255;41182;-69
2022/04/01 02:15:44;;;;;;;10.00;3.50;;;;;12.32;95382.20;;;;110695;1252;41176;-68
2022/04/01 02:18:13;;;;;;;10.20;3.60;;;;;12.30;95382.40;;;;110695;1254;41537;-69
2022/04/01 02:20:44;;;;;;;;;;;;;12.30;95379.40;;;;110637;1254;41894;-68
2022/04/01 02:23:16;;;;;;;10.60;3.70;;;;;12.30;95380.60;;;;110452;1253;42258;-68
2022/04/01 02:25:47;;;;;;;9.80;3.40;;;;;12.30;95381.60;;;;110621;1255;41213;-69
2022/04/01 02:28:18;;;;;;;11.20;3.60;;;;;12.30;95384.80;;;;110629;1253;41245;-69
2022/04/01 02:30:47;;;;;;;9.30;3.00;;;;;12.30;95380.20;;;;110658;1253;41150;-68
2022/04/01 02:33:42;;;;;;;9.00;2.80;;;;;12.40;95382.80;;;;110675;1253;41766;-69
2022/04/01 02:36:12;;;;;;;9.90;3.00;;;;;12.40;95385.40;;;;110647;1255;41155;-68
2022/04/01 02:38:42;;;;;;;8.20;2.90;;;;;12.40;95381.80;;;;110673;1253;41798;-68
2022/04/01 02:41:11;;;;;;;11.20;3.30;;;;;12.40;95384.80;;;;110712;1253;41438;-68
2022/04/01 02:43:42;;;;;;;;;;;;;12.40;95386.40;;;;110661;1254;41513;-69
2022/04/01 02:46:12;;;;;;;11.70;3.60;;;;;12.40;95386.00;;;;110636;1253;41155;-69
2022/04/01 02:48:49;;;;;;;9.70;3.60;;;;;12.40;95392.40;;;;110659;1252;41139;-69
2022/04/01 02:51:42;;;;;;;9.70;3.30;;;;;12.42;95384.80;;;;110627;1253;41386;-68
2022/04/01 02:54:20;;;;;;;11.80;3.20;;;;;12.44;95380.20;;;;110650;1255;41130;-68
2022/04/01 02:56:51;;;;;;;8.00;3.20;;;;;12.50;95381.60;;;;110625;1252;42391;-68
2022/04/01 02:59:21;;;;;;;10.60;3.30;;;;;12.50;95387.20;;;;110651;1253;41404;-69
2022/04/01 03:01:51;;;;;;;10.00;3.20;;;;;12.50;95386.60;;;;110624;1254;41473;-69
2022/04/01 03:04:22;;;;;;;9.20;3.20;;;;;12.50;95384.40;;;;110685;1252;42494;-69
2022/04/01 03:06:54;;;;;;;9.00;3.30;;;;;12.50;95380.60;;;;110733;1252;41338;-70
2022/04/01 03:09:24;;;;;;;8.90;3.30;;;;;12.50;95379.00;;;;110432;1252;41164;-70
2022/04/01 03:12:00;;;;;;;11.00;3.20;;;;;12.54;95375.80;;;;110664;1253;42481;-70
2022/04/01 03:14:58;;;;;;;10.10;3.30;;;;;12.60;95388.60;;;;110667;1252;41943;-69
2022/04/01 03:18:09;;;;;;;11.20;3.50;;;;;12.60;95389.00;;;;110284;1259;41174;-68
2022/04/01 03:20:45;;;;;;;8.00;3.30;;;;;12.60;95384.60;;;;110367;1259;41222;-69
2022/04/01 03:23:15;;;;;;;9.60;3.10;;;;;12.64;95384.60;;;;110642;1252;41267;-68
2022/04/01 03:25:44;;;;;;;10.10;3.30;;;;;12.70;95385.40;;;;110670;1253;41267;-70
2022/04/01 03:28:20;;;;;;;8.70;2.80;;;;;12.70;95382.60;;;;110648;1254;41528;-69
2022/04/01 03:30:53;;;;;;;10.10;3.30;;;;;12.70;95383.60;;;;110748;1253;41915;-70
2022/04/01 03:33:26;;;;;;;9.30;3.10;;;;;12.72;95379.40;;;;110699;1254;41152;-70
2022/04/01 03:35:56;;;;;;;14.50;3.60;;;;;12.80;95381.60;;;;110670;1256;41279;-70
2022/04/01 03:38:28;;;;;;;9.70;2.60;;;;;12.80;95380.00;;;;110711;1252;41158;-70
2022/04/01 03:41:00;;;;;;;8.30;3.00;;;;;12.80;95378.80;;;;110647;1255;41734;-70
2022/04/01 03:43:34;;;;;;;9.70;3.10;;;;;12.80;95375.20;;;;110597;1254;41165;-71
2022/04/01 03:46:10;;;;;;;11.30;3.30;;;;;12.80;95371.20;;;;110689;1253;41164;-70
2022/04/01 03:48:42;;;;;;;8.80;3.20;;;;;12.80;95369.60;;;;110740;1252;41158;-70
2022/04/01 03:51:17;;;;;;;9.70;3.30;;;;;12.80;95376.60;;;;110536;1255;41156;-70
2022/04/01 03:53:54;;;;;;;15.20;3.70;;;;;12.80;95376.60;;;;110620;1255;41143;-70
2022/04/01 03:56:36;;;;;;;10.30;3.30;;;;;12.70;95374.80;;;;110627;1253;41167;-70
2022/04/01 03:59:41;;;;;;;11.30;3.00;;;;;12.70;95381.60;;;;110426;1257;41168;-69
2022/04/01 04:02:32;;;;;;;7.20;2.90;;;;;12.70;95385.40;;;;110556;1254;41160;-69
2022/04/01 04:05:03;;;;;;;9.50;3.30;;;;;12.70;95384.60;;;;111275;1250;41152;-68
2022/04/01 04:07:33;;;;;;;15.60;3.30;;;;;12.70;95382.60;;;;110852;1252;41363;-69
2022/04/01 04:10:07;;;;;;;9.60;3.30;;;;;12.80;95385.20;;;;110926;1249;41599;-70
2022/04/01 04:12:47;;;;;;;9.80;3.30;;;;;12.80;95380.40;;;;111160;1250;41135;-68
2022/04/01 04:15:17;;;;;;;12.30;3.30;;;;;12.80;95382.00;;;;111044;1248;41367;-71
2022/04/01 04:17:49;;;;;;;10.60;3.60;;;;;12.90;95369.80;;;;111133;1250;41173;-69
2022/04/01 04:20:23;;;;;;;13.90;3.50;;;;;12.90;95368.80;;;;110888;1249;41140;-69
2022/04/01 04:23:15;;;;;;;11.10;3.30;;;;;12.90;95371.00;;;;111058;1249;41632;-69
2022/04/01 04:26:11;;;;;;;10.60;3.70;;;;;12.90;95372.00;;;;110756;1251;42342;-69
2022/04/01 04:28:50;;;;;;;8.70;3.40;;;;;12.96;95377.80;;;;111126;1250;41711;-69
2022/04/01 04:31:47;;;;;;;10.80;3.40;;;;;12.92;95387.00;;;;111083;1249;41172;-70
2022/04/01 04:34:19;;;;;;;8.20;2.80;;;;;12.90;95392.60;;;;111149;1249;40733;-69
2022/04/01 04:36:49;;;;;;;9.60;3.30;;;;;12.90;95389.40;;;;110810;1250;42576;-70
2022/04/01 04:39:38;;;;;;;13.10;3.40;;;;;12.90;95398.20;;;;111143;1250;41167;-69
2022/04/01 04:42:09;;;;;;;10.30;3.30;;;;;12.90;95390.40;;;;110924;1249;41149;-70
2022/04/01 04:44:39;;;;;;;12.40;3.70;;;;;12.88;95391.20;;;;110977;1249;41265;-70
2022/04/01 04:47:11;;;;;;;7.20;2.80;;;;;12.80;95398.80;;;;110669;1250;42265;-69
2022/04/01 04:49:47;;;;;;;10.00;3.20;;;;;12.80;95401.40;;;;110854;1249;41137;-72
2022/04/01 04:52:18;;;;;;;9.10;3.10;;;;;12.80;95406.60;;;;110742;1250;41154;-69
2022/04/01 04:54:51;;;;;;;6.20;2.70;;;;;12.80;95412.60;;;;110962;1249;41137;-70
2022/04/01 04:57:48;;;;;;;9.80;2.80;;;;;12.90;95409.00;;;;110887;1250;42512;-72
2022/04/01 05:00:19;;;;;;;;;;;;;12.90;95406.20;;;;110881;1252;41165;-71
2022/04/01 05:03:17;;;;;;;7.60;2.50;;;;;12.90;95408.60;;;;110959;1250;41261;-70
2022/04/01 05:05:49;;;;;;;7.80;2.40;;;;;12.98;95411.40;;;;110930;1251;41727;-71
2022/04/01 05:08:46;;;;;;;8.40;2.60;;;;;13.02;95408.00;;;;110862;1251;41969;-72
2022/04/01 05:12:16;;;;;;;8.70;2.90;;;;;13.10;95399.20;;;;110886;1250;42574;-71
2022/04/01 05:15:28;;;;;;;9.40;2.40;;;;;13.20;95395.20;;;;109911;1260;41655;-70
2022/04/01 05:18:12;;;;;;;7.10;2.70;;;;;13.20;95392.40;;;;109657;1263;42339;-69
2022/04/01 05:20:55;;;;;;;8.20;2.90;;;;;13.30;95395.00;;;;110702;1251;41261;-71
2022/04/01 05:23:49;;;;;;;10.20;3.80;;;;;13.30;95399.20;;;;110884;1250;42612;-71
2022/04/01 05:26:25;;;;;;;12.20;3.90;;;;;13.30;95399.00;;;;110896;1251;41802;-68
2022/04/01 05:29:25;;;;;;;9.20;3.40;;;;;13.30;95392.80;;;;110603;1251;41254;-68
2022/04/01 05:32:00;;;;;;;10.40;3.40;;;;;13.40;95397.60;;;;110950;1251;42493;-70
2022/04/01 05:34:41;;;;;;;10.70;4.30;;;;;13.40;95403.60;;;;110807;1250;41155;-71
2022/04/01 05:37:13;;;;;;;10.70;3.90;;;;;13.40;95401.20;;;;111007;1250;40856;-70
2022/04/01 05:39:46;;;;;;;9.60;3.40;;;;;13.40;95399.20;;;;110832;1250;41930;-70
2022/04/01 05:42:18;;;;;;;11.00;3.10;;;;;13.42;95401.20;;;;110617;1252;41155;-70
2022/04/01 05:45:21;;;;;;;10.80;2.90;;;;;13.50;95400.00;;;;110605;1253;41184;-71
2022/04/01 05:47:51;;;;;;;10.20;3.10;;;;;13.50;95400.60;;;;110858;1252;41154;-71
2022/04/01 05:50:30;;;;;;;10.90;3.20;;;;;13.50;95395.00;;;;110661;1253;41606;-70
2022/04/01 05:53:01;;;;;;;9.00;3.10;;;;;13.60;95395.20;;;;110902;1251;41148;-71
2022/04/01 05:55:36;;;;;;;9.80;3.00;;;;;13.60;95391.80;;;;110638;1252;41160;-70
2022/04/01 05:58:23;;;;;;;10.10;3.10;;;;;13.70;95392.20;;;;110443;1253;41171;-71
2022/04/01 06:01:16;;;;;;;7.60;3.10;;;;;13.78;95393.40;;;;110650;1252;41146;-70
2022/04/01 06:04:16;;;;;;;8.30;2.90;;;;;13.80;95391.60;;;;110692;1252;41168;-70
2022/04/01 06:06:48;;;;;;;8.70;3.10;;;;;13.90;95393.60;;;;110869;1252;41158;-74
2022/04/01 06:09:42;;;;;;;7.60;3.00;;;;;14.00;95388.00;;;;110699;1252;40964;-73
2022/04/01 06:12:38;;;;;;;7.70;2.90;;;;;14.10;95390.40;;;;110701;1253;41172;-73
2022/04/01 06:16:14;;;;;;;10.60;2.90;;;;;14.30;95393.20;;;;110692;1252;41191;-71
2022/04/01 06:19:21;;;;;;;13.40;3.50;;;;;14.40;95382.20;;;;110635;1253;41197;-68
2022/04/01 06:22:13;;;;;;;10.10;3.30;;;;;14.60;95365.60;;;;110819;1252;41146;-69
2022/04/01 06:25:13;;;;;;;10.80;3.40;;;;;14.80;95369.00;;;;110760;1250;41176;-69
2022/04/01 06:27:48;;;;;;;9.50;3.80;;;;;14.90;95374.60;;;;110484;1250;479240;-68
2022/04/01 06:30:25;;;;;;;7.70;3.20;;;;;15.08;95373.20;;;;110842;1252;41453;-70
2022/04/01 06:33:15;;;;;;;10.20;3.90;;;;;15.20;95363.20;;;;110696;1252;41179;-69
2022/04/01 06:36:06;;;;;;;10.80;4.20;;;;;15.36;95372.40;;;;110642;1254;41650;-71
2022/04/01 06:38:55;;;;;;;12.70;3.40;;;;;15.50;95361.20;;;;110771;1251;41941;-71
2022/04/01 06:41:31;;;;;;;10.30;3.00;;;;;15.70;95366.60;;;;110831;1250;41309;-72
2022/04/01 06:44:19;;;;;;;10.30;3.10;;;;;15.90;95357.40;;;;110884;1250;40896;-69
2022/04/01 06:47:07;;;;;;;7.20;2.80;;;;;16.10;95355.40;;;;110873;1252;41266;-69
2022/04/01 06:49:36;;;;;;;8.30;2.40;;;;;16.34;95356.20;;;;110669;1252;41264;-69
2022/04/01 06:52:36;;;;;;;5.70;2.30;;;;;16.68;95364.80;;;;110793;1252;41259;-66
2022/04/01 06:55:23;;;;;;;6.90;2.40;;;;;16.90;95365.00;;;;110778;1250;41619;-70
2022/04/01 06:57:58;;;;;;;6.50;2.00;;;;;17.12;95359.60;;;;110778;1251;41182;-69
2022/04/01 07:00:36;;;;;;;6.20;2.20;;;;;17.32;95353.60;;;;110842;1251;41260;-71
2022/04/01 07:03:05;;;;;;;5.30;1.90;;;;;17.40;95345.40;;;;110771;1252;40965;-69
2022/04/01 07:05:35;;;;;;;6.40;2.20;;;;;17.66;95344.00;;;;110706;1252;41278;-69
2022/04/01 07:08:05;;;;;;;9.70;2.30;;;;;17.74;95353.40;;;;110739;1252;41169;-69
2022/04/01 07:10:34;;;;;;;5.60;2.10;;;;;17.90;95363.40;;;;110592;1252;41941;-71
2022/04/01 07:13:03;;;;;;;5.50;2.10;;;;;18.00;95354.00;;;;110766;1251;40725;-69
2022/04/01 07:15:32;;;;;;;5.20;2.00;;;;;18.14;95356.40;;;;110925;1249;42722;-70
2022/04/01 07:18:02;;;;;;;5.20;2.00;;;;;18.30;95363.80;;;;110572;1252;41175;-69
2022/04/01 07:20:32;;;;;;;6.50;2.10;;;;;18.50;95354.20;;;;110856;1251;41606;-69
2022/04/01 07:23:03;;;;;;;7.10;2.10;;;;;18.50;95349.20;;;;110722;1249;41947;-70
2022/04/01 07:25:34;;;;;;;8.60;2.20;;;;;18.52;95348.80;;;;110807;1251;41166;-71
2022/04/01 07:28:03;;;;;;;9.30;2.20;;;;;18.50;95345.20;;;;110783;1250;41170;-70
2022/04/01 07:30:32;;;;;;;4.70;1.70;;;;;18.50;95347.60;;;;110814;1252;42210;-68
2022/04/01 07:33:03;;;;;;;5.60;1.90;;;;;18.50;95344.80;;;;110877;1251;41159;-70
2022/04/01 07:35:34;;;;;;;8.10;2.30;;;;;18.60;95343.00;;;;110916;1250;41621;-68
2022/04/01 07:38:03;;;;;;;;;;;;;18.70;95340.80;;;;110972;1251;41683;-69
2022/04/01 07:40:33;;;;;;;7.50;2.10;;;;;18.80;95338.00;;;;110778;1252;41920;-69
2022/04/01 07:43:02;;;;;;;8.50;1.90;;;;;18.88;95325.00;;;;110625;1252;41137;-71
2022/04/01 07:45:34;;;;;;;4.90;1.80;;;;;19.08;95323.80;;;;110940;1252;41617;-68
2022/04/01 07:48:07;;;;;;;6.50;1.90;;;;;19.30;95326.80;;;;110820;1252;41590;-70
2022/04/01 07:50:36;;;;;;;5.10;1.70;;;;;19.54;95331.20;;;;110900;1249;41258;-70
2022/04/01 07:53:05;;;;;;;6.00;1.50;;;;;19.50;95324.00;;;;110801;1252;41290;-68
2022/04/01 07:55:34;;;;;;;7.80;2.30;;;;;19.56;95322.20;;;;110673;1252;41150;-69
2022/04/01 07:58:03;;;;;;;5.60;1.80;;;;;19.76;95321.80;;;;110665;1252;41155;-68
2022/04/01 08:00:52;;;;;;;4.30;1.50;;;;;19.90;95312.20;;;;110795;1251;41346;-70
2022/04/01 08:03:21;;;;;;;3.90;1.40;;;;;20.10;95315.00;;;;110801;1249;41277;-69
2022/04/01 08:05:51;;;;;;;4.50;1.50;;;;;20.00;95311.20;;;;110788;1251;41378;-68
2022/04/01 08:08:21;;;;;;;3.50;1.40;;;;;20.12;95307.80;;;;110849;1252;41142;-70
2022/04/01 08:10:51;;;;;;;6.80;1.60;;;;;20.20;95308.20;;;;110800;1252;41443;-69
2022/04/01 08:13:31;;;;;;;;;;;;;20.40;95322.80;;;;110613;1252;41396;-69
2022/04/01 08:16:04;;;;;;;5.80;1.50;;;;;20.60;95310.80;;;;110789;1251;41608;-69
2022/04/01 08:18:33;;;;;;;2.40;1.30;;;;;20.80;95312.20;;;;110908;1251;41620;-70
2022/04/01 08:21:03;;;;;;;4.40;1.60;;;;;20.90;95311.20;;;;110932;1251;41620;-70
2022/04/01 08:23:37;;;;;;;4.60;1.60;;;;;21.00;95300.80;;;;110749;1252;42626;-69
2022/04/01 08:26:07;;;;;;;;;;;;;21.24;95301.80;;;;110694;1252;42389;-68
2022/04/01 08:28:36;;;;;;;7.90;1.80;;;;;21.54;95296.60;;;;110678;1252;41443;-68
2022/04/01 08:31:08;;;;;;;7.30;2.00;;;;;21.76;95293.20;;;;110725;1253;41952;-71
2022/04/01 08:33:37;;;;;;;4.50;1.50;;;;;22.04;95282.60;;;;110792;1252;41173;-68
2022/04/01 08:36:06;;;;;;;5.50;1.60;;;;;22.40;95282.60;;;;110765;1252;41160;-69
2022/04/01 08:38:36;;;;;;;3.20;1.40;;;;;22.60;95286.60;;;;110616;1254;41655;-69
2022/04/01 08:41:04;;;;;;;6.20;1.80;;;;;22.60;95284.00;;;;110546;1253;41973;-69
2022/04/01 08:43:36;;;;;;;5.20;1.50;;;;;22.50;95284.60;;;;110720;1252;41175;-68
2022/04/01 08:46:08;;;;;;;3.60;1.60;;;;;22.20;95280.60;;;;110778;1250;41389;-69
2022/04/01 08:48:39;;;;;;;3.00;1.40;;;;;21.80;95284.20;;;;110808;1251;41153;-69
2022/04/01 08:51:08;;;;;;;4.80;1.50;;;;;21.70;95281.20;;;;110795;1252;41395;-70
2022/04/01 08:53:43;;;;;;;6.50;1.90;;;;;21.60;95285.60;;;;110721;1252;41151;-71
2022/04/01 08:56:13;;;;;;;6.10;1.90;;;;;21.70;95280.20;;;;110635;1252;41405;-69
2022/04/01 08:58:42;;;;;;;6.10;1.90;;;;;21.50;95280.40;;;;110746;1252;41374;-69
2022/04/01 09:01:12;;;;;;;10.30;2.20;;;;;21.60;95279.40;;;;110659;1252;41381;-67
2022/04/01 09:03:42;;;;;;;8.70;2.10;;;;;21.74;95281.60;;;;110601;1254;41261;-69
2022/04/01 09:06:11;;;;;;;8.30;2.20;;;;;21.80;95279.60;;;;110795;1252;41136;-69
2022/04/01 09:08:42;;;;;;;6.10;2.00;;;;;21.70;95284.20;;;;110660;1253;41202;-67
2022/04/01 09:11:16;;;;;;;4.70;1.80;;;;;21.78;95283.80;;;;110777;1252;41137;-69
2022/04/01 09:13:51;;;;;;;8.20;2.40;;;;;21.70;95278.20;;;;110594;1252;41264;-67
2022/04/01 09:16:32;;;;;;;9.70;2.20;;;;;21.80;95293.00;;;;110546;1252;41216;-70
2022/04/01 09:19:03;;;;;;;9.70;2.10;;;;;21.80;95286.40;;;;110730;1253;42356;-69
2022/04/01 09:21:34;;;;;;;13.80;2.90;;;;;21.70;95297.80;;;;110697;1252;42440;-67
2022/04/01 09:24:03;;;;;;;9.80;2.40;;;;;21.60;95291.60;;;;110752;1252;41333;-69
2022/04/01 09:26:37;;;;;;;12.70;2.70;;;;;21.30;95298.40;;;;110682;1252;41133;-69
2022/04/01 09:29:11;;;;;;;9.20;2.40;;;;;21.16;95295.00;;;;110775;1252;42374;-69
2022/04/01 09:31:41;;;;;;;12.20;2.90;;;;;21.36;95296.00;;;;110755;1252;41137;-67
2022/04/01 09:34:13;;;;;;;15.30;2.80;;;;;21.34;95298.60;;;;110732;1252;41163;-69
2022/04/01 09:36:43;;;;;;;13.00;3.20;;;;;21.38;95288.80;;;;110890;1252;41169;-70
2022/04/01 09:39:12;;;;;;;14.70;3.70;;;;;21.90;95280.00;;;;110704;1252;41162;-69
2022/04/01 09:41:43;;;;;;;16.80;3.20;;;;;22.36;95272.40;;;;110734;1252;42166;-70
2022/04/01 09:44:30;;;;;;;13.80;2.70;;;;;22.58;95271.40;;;;110754;1252;41164;-69
2022/04/01 09:47:03;;;;;;;14.40;3.00;;;;;22.34;95272.40;;;;110920;1252;41173;-67
2022/04/01 09:49:34;;;;;;;14.30;3.20;;;;;21.96;95273.00;;;;110834;1252;41143;-69
2022/04/01 09:52:09;;;;;;;16.50;3.10;;;;;21.68;95270.60;;;;110800;1252;42641;-69
2022/04/01 09:54:45;;;;;;;17.60;3.20;;;;;21.70;95265.40;;;;110915;1249;43701;-69
2022/04/01 09:57:15;;;;;;;14.50;3.80;;;;;21.60;95265.40;;;;110743;1252;41270;-69
2022/04/01 09:59:46;;;;;;;16.50;3.50;;;;;21.50;95266.80;;;;110769;1251;41589;-68
2022/04/01 10:02:14;;;;;;;18.70;4.10;;;;;21.50;95275.40;;;;110882;1251;42363;-68
2022/04/01 10:04:44;;;;;;;20.90;3.80;;;;;21.40;95282.00;;;;110902;1251;41146;-68
2022/04/01 10:07:13;;;;;;;16.20;3.70;;;;;21.20;95273.80;;;;110764;1252;41966;-68
2022/04/01 10:09:43;;;;;;;17.80;3.90;;;;;21.10;95265.00;;;;110900;1251;41293;-69
2022/04/01 10:12:31;;;;;;;17.80;3.90;;;;;21.00;95273.40;;;;110756;1252;41159;-68
2022/04/01 10:15:01;;;;;;;18.90;3.90;;;;;20.98;95270.20;;;;110746;1252;41897;-70
2022/04/01 10:17:51;;;;;;;20.60;4.20;;;;;20.90;95265.60;;;;110747;1253;41805;-69
2022/04/01 10:20:21;;;;;;;20.40;3.90;;;;;20.76;95271.20;;;;110708;1252;40892;-68
2022/04/01 10:22:51;;;;;;;19.30;3.80;;;;;20.60;95281.20;;;;110685;1253;41153;-69
2022/04/01 10:25:30;;;;;;;16.00;4.10;;;;;20.40;95278.80;;;;110637;1251;41177;-67
2022/04/01 10:28:04;;;;;;;15.60;4.10;;;;;20.30;95282.20;;;;110751;1252;41655;-68
2022/04/01 10:30:35;;;;;;;10.80;2.30;;;;;20.20;95289.40;;;;110586;1252;41773;-69
2022/04/01 10:33:06;;;;;;;12.20;2.40;;;;;20.10;95280.60;;;;110765;1252;41632;-70
2022/04/01 10:35:38;;;;;;;12.10;2.60;;;;;19.90;95270.80;;;;110975;1252;41206;-68
2022/04/01 10:38:07;;;;;;;13.80;3.30;;;;;19.76;95281.80;;;;110799;1252;41240;-68
2022/04/01 10:40:38;;;;;;;11.80;2.40;;;;;19.50;95286.80;;;;110749;1251;41394;-68
2022/04/01 10:43:18;;;;;;;15.00;3.30;;;;;19.30;95288.80;;;;110920;1252;41706;-69
2022/04/01 10:46:01;;;;;;;16.90;3.60;;;;;19.10;95291.60;;;;110753;1251;41024;-70
2022/04/01 10:51:41;;;;;;;15.70;3.40;;;;;18.80;95300.60;;;;110901;1251;41659;-69
2022/04/01 10:54:13;;;;;;;19.10;3.60;;;;;18.44;95301.80;;;;110916;1251;41152;-69
2022/04/01 10:56:44;;;;;;;15.60;3.50;;;;;18.42;95296.00;;;;110884;1252;42390;-70
2022/04/01 10:59:23;;;;;;;15.20;3.20;;;;;18.40;95289.20;;;;110791;1252;41626;-70
2022/04/01 11:01:52;;;;;;;18.10;3.60;;;;;18.20;95281.60;;;;110749;1253;41169;-69
2022/04/01 11:04:23;;;;;;;17.80;4.10;;;;;18.20;95276.00;;;;110901;1251;41709;-68
2022/04/01 11:07:14;;;;;;;23.00;4.30;;;;;18.30;95267.60;;;;110883;1252;41920;-68
2022/04/01 11:09:46;;;;;;;20.30;3.90;;;;;18.32;95260.00;;;;110780;1252;42754;-68
2022/04/01 11:12:15;;;;;;;24.50;4.80;;;;;18.40;95265.00;;;;110916;1252;41143;-69
2022/04/01 11:14:53;;;;;;;30.10;5.30;;;;;18.50;95266.00;;;;110913;1251;41157;-68
2022/04/01 11:17:24;;;;;;;22.70;5.00;;;;;18.80;95266.80;;;;110931;1252;41150;-70
2022/04/01 11:20:12;;;;;;;23.30;4.90;;;;;18.96;95267.40;;;;110829;1251;41778;-70
2022/04/01 11:22:46;;;;;;;19.60;4.10;;;;;19.00;95281.80;;;;110877;1251;41170;-70
2022/04/01 11:25:24;;;;;;;24.40;5.20;;;;;19.02;95300.60;;;;110813;1251;41230;-71
2022/04/01 11:27:56;;;;;;;24.40;4.50;;;;;19.00;95303.00;;;;110833;1251;41296;-70
2022/04/01 11:30:27;;;;;;;23.00;4.50;;;;;18.80;95301.40;;;;110828;1253;41633;-71
2022/04/01 11:33:00;;;;;;;18.50;3.70;;;;;18.80;95320.40;;;;110819;1253;41177;-71
2022/04/01 11:35:36;;;;;;;16.60;3.70;;;;;18.70;95333.20;;;;110887;1251;41147;-69
2022/04/01 11:38:07;;;;;;;20.60;4.60;;;;;18.52;95330.60;;;;110761;1252;41152;-69
2022/04/01 11:40:37;;;;;;;19.60;4.40;;;;;18.40;95332.40;;;;110804;1251;41264;-70
2022/04/01 11:43:09;;;;;;;15.80;3.50;;;;;18.20;95346.40;;;;110764;1251;41920;-69
2022/04/01 11:45:51;;;;;;;19.10;4.10;;;;;18.10;95337.80;;;;110807;1252;41154;-71
2022/04/01 11:48:36;;;;;;;15.90;3.60;;;;;17.90;95341.00;;;;110927;1251;41189;-71
2022/04/01 11:51:19;;;;;;;14.80;3.60;;;;;17.80;95354.80;;;;110895;1251;41166;-70
2022/04/01 11:53:51;;;;;;;13.80;3.90;;;;;17.70;95367.40;;;;110763;1252;41361;-69
2022/04/01 11:56:28;;;;;;;18.30;4.00;;;;;17.68;95359.60;;;;110922;1251;41171;-69
2022/04/01 11:59:05;;;;;;;16.80;3.90;;;;;17.58;95365.60;;;;110824;1252;41154;-70
2022/04/01 12:01:54;;;;;;;14.80;3.30;;;;;17.50;95372.20;;;;110907;1250;41166;-68
2022/04/01 12:04:32;;;;;;;15.40;3.80;;;;;17.30;95387.00;;;;110839;1251;41131;-69
2022/04/01 12:10:24;;;;;;;19.10;3.70;;;;;16.50;95374.80;;;;110831;1252;41442;-69
2022/04/01 12:13:00;;;;;;;16.30;3.90;;;;;16.36;95375.40;;;;110840;1252;41957;-70
2022/04/01 12:15:47;;;;;;;15.20;3.30;;;;;16.20;95370.80;;;;110806;1252;41784;-69
2022/04/01 12:18:20;;;;;;;15.90;3.50;;;;;16.10;95358.40;;;;110710;1254;42122;-69
2022/04/01 12:21:00;;;;;;;18.20;3.50;;;;;16.06;95353.60;;;;110656;1254;41174;-68
2022/04/01 12:23:32;;;;;;;16.10;3.60;;;;;16.00;95352.20;;;;110889;1252;41636;-69
2022/04/01 12:26:02;;;;;;;21.30;3.20;;;;;16.00;95343.20;;;;110861;1249;41933;-70
2022/04/01 12:28:41;;;;;;;16.80;3.80;;;;;16.10;95347.40;;;;110856;1252;41602;-71
2022/04/01 12:31:18;;;;;;;16.00;2.70;;;;;16.10;95339.00;;;;110624;1253;41332;-68
2022/04/01 12:33:49;;;;;;;14.20;3.80;;;;;16.20;95336.40;;;;110795;1251;41534;-70
2022/04/01 12:36:36;;;;;;;12.10;3.10;;;;;16.30;95328.60;;;;110937;1251;41143;-70
2022/04/01 12:39:14;;;;;;;12.20;3.50;;;;;16.40;95325.20;;;;110783;1251;41182;-70
2022/04/01 12:41:57;;;;;;;12.40;3.40;;;;;16.50;95322.60;;;;110879;1250;40889;-70
2022/04/01 12:44:28;;;;;;;9.10;3.00;;;;;16.60;95317.20;;;;110898;1250;40897;-70
2022/04/01 12:47:03;;;;;;;17.90;3.40;;;;;16.70;95312.20;;;;110898;1251;41152;-70
2022/04/01 12:49:34;;;;;;;13.30;3.60;;;;;16.70;95300.80;;;;110867;1251;41406;-70
2022/04/01 12:52:12;;;;;;;;;;;;;16.80;95300.80;;;;110825;1251;41494;-71
2022/04/01 12:54:48;;;;;;;17.10;4.00;;;;;17.00;95301.80;;;;110846;1251;41145;-71
2022/04/01 12:57:19;;;;;;;14.70;3.00;;;;;17.20;95297.20;;;;110782;1252;41335;-71
2022/04/01 12:59:50;;;;;;;11.80;3.20;;;;;17.20;95296.80;;;;110944;1252;41619;-70
2022/04/01 13:02:23;;;;;;;;;;;;;17.30;95286.20;;;;110904;1251;41160;-68
2022/04/01 13:04:56;;;;;;;15.90;3.30;;;;;17.50;95282.00;;;;110910;1249;41571;-71
2022/04/01 13:07:25;;;;;;;12.90;3.10;;;;;17.70;95277.40;;;;110795;1251;41139;-71
2022/04/01 13:09:59;;;;;;;11.10;3.20;;;;;17.80;95273.20;;;;110770;1251;41603;-69
2022/04/01 13:12:28;;;;;;;15.10;2.90;;;;;18.00;95264.80;;;;110879;1251;41479;-70
2022/04/01 13:14:59;;;;;;;14.50;3.20;;;;;18.30;95264.60;;;;110878;1251;42139;-72
2022/04/01 13:17:29;;;;;;;17.20;3.70;;;;;18.54;95265.00;;;;110836;1251;41387;-70
2022/04/01 13:19:58;;;;;;;10.10;2.80;;;;;18.70;95254.80;;;;110707;1253;41362;-70
2022/04/01 13:22:27;;;;;;;14.20;3.10;;;;;18.88;95250.40;;;;110705;1251;41185;-71
2022/04/01 13:24:56;;;;;;;12.50;2.80;;;;;18.90;95247.80;;;;110732;1251;41197;-71
2022/04/01 13:27:24;;;;;;;8.80;2.50;;;;;18.90;95236.80;;;;110816;1251;41176;-70
2022/04/01 13:29:54;;;;;;;14.30;2.90;;;;;18.90;95232.80;;;;110826;1251;41993;-71
2022/04/01 13:32:23;;;;;;;13.70;3.10;;;;;18.98;95236.80;;;;110753;1251;42614;-70
2022/04/01 13:34:52;;;;;;;11.80;2.90;;;;;19.02;95214.00;;;;110740;1251;41253;-70
2022/04/01 13:37:21;;;;;;;18.30;3.50;;;;;19.14;95206.20;;;;110876;1251;41166;-70
2022/04/01 13:39:50;;;;;;;17.60;2.70;;;;;19.24;95205.40;;;;110877;1251;41268;-70
2022/04/01 13:42:20;;;;;;;15.10;3.20;;;;;19.30;95204.00;;;;110822;1251;41151;-70
2022/04/01 13:44:50;;;;;;;15.80;3.10;;;;;19.42;95210.00;;;;110718;1251;41204;-70
2022/04/01 13:47:19;;;;;;;15.20;3.40;;;;;19.50;95206.80;;;;110753;1251;42561;-70
2022/04/01 13:49:48;;;;;;;14.00;3.20;;;;;19.50;95200.80;;;;110770;1251;41517;-71
2022/04/01 13:52:18;;;;;;;14.00;2.90;;;;;19.54;95194.40;;;;110773;1251;41230;-70
2022/04/01 13:54:48;;;;;;;16.10;3.30;;;;;19.60;95189.20;;;;110825;1251;40789;-70